aviador You're here:

KINT Decoded Metar

WINSTON-SALEM in NC, USA
Report Time2018-02-17 23:24:00
UTC Time2018-02-17 23:42:06
Flight Rules lifr LIFR
Wind030° at 09 kt
W.Decomp.*RWY 04: 9.0 kt HW 0.5 kt LCW
RWY 33: 3.5 kt HW 8.3 kt RCW
W.Rank030° ranks 2
Current wind is above 030° avg. (6.2)
Visibility4828 m
Phenomena:Light Rain
Mist
Clouds:Overcast 003 Hf
Ceiling300 ft
Temp04°C (ISA -9)
Dew Point04°C (100% RH)
AAT-0.6°C
QNH1020 hPa
Density Alt-269 ft
Elevation955 ft
Report Wrong Elevation
Raw Report
KINT 172324Z 03009KT 3SM -RA BR OVC003 04/04 A3012 RMK AO2 RAB03
P0001 T00390039=

Extra information for KINT:More info

Metar Taf Metar & Taf Last 4 Metars F.Rules Stats Wind Profile Meteogram Temp Stats Airport Information Weather charts Add Link Nearby VenuesMetar ALERT Operation Metar Decoded Social comments

AIRNAV info for KINT